Time;durP1;ratioP1;P1;durP2;ratioP2;P2;SDS_P1;SDS_P2;PMS_P1;PMS_P2;Temp;Humidity;BMP_temperature;BMP_pressure;BME280_temperature;BME280_humidity;BME280_pressure;Samples;Min_cycle;Max_cycle;Signal;HPM_P1;HPM_P2
2020/12/12 00:01:38;;;;;;;5.70;5.20;;;6.10;99.90;;;;;;4994291;28;20286;-28
2020/12/12 00:04:08;;;;;;;6.20;5.68;;;6.10;99.90;;;;;;4994146;28;20196;-28
2020/12/12 00:06:38;;;;;;;5.55;5.05;;;6.10;99.90;;;;;;4993954;28;20726;-27
2020/12/12 00:09:08;;;;;;;10.05;6.40;;;6.00;99.90;;;;;;4993572;28;20270;-27
2020/12/12 00:11:38;;;;;;;7.25;6.10;;;6.00;99.90;;;;;;4994000;28;20640;-27
2020/12/12 00:14:10;;;;;;;8.35;7.28;;;5.90;99.90;;;;;;4993825;28;20235;-29
2020/12/12 00:16:40;;;;;;;6.43;5.82;;;5.90;99.90;;;;;;4993847;28;20192;-28
2020/12/12 00:19:11;;;;;;;8.30;7.40;;;5.90;99.90;;;;;;4994511;28;20620;-28
2020/12/12 00:21:41;;;;;;;6.90;6.38;;;5.80;99.90;;;;;;4993897;28;20227;-28
2020/12/12 00:24:11;;;;;;;6.43;5.75;;;5.80;99.90;;;;;;4993697;28;20200;-28
2020/12/12 00:26:42;;;;;;;7.40;5.90;;;5.70;99.90;;;;;;4993478;28;20258;-27
2020/12/12 00:29:13;;;;;;;775.28;126.57;;;5.60;99.90;;;;;;4993667;28;20729;-28
2020/12/12 00:31:44;;;;;;;227.77;40.47;;;5.60;99.90;;;;;;4993397;28;20271;-28
2020/12/12 00:34:14;;;;;;;7.40;6.57;;;5.70;99.90;;;;;;4993486;28;20652;-28
2020/12/12 00:36:45;;;;;;;5.60;5.10;;;5.70;99.90;;;;;;4992885;28;20291;-28
2020/12/12 00:39:15;;;;;;;6.13;5.60;;;5.60;99.90;;;;;;4993553;28;20196;-27
2020/12/12 00:41:45;;;;;;;6.35;5.85;;;5.60;99.90;;;;;;4992776;28;20232;-27
2020/12/12 00:44:17;;;;;;;5.88;5.20;;;5.50;99.90;;;;;;4993319;28;20207;-28
2020/12/12 00:46:47;;;;;;;5.75;5.25;;;5.50;99.90;;;;;;4993340;28;20665;-27
2020/12/12 00:49:17;;;;;;;5.93;5.40;;;5.40;99.90;;;;;;4993330;28;20337;-28
2020/12/12 00:51:47;;;;;;;5.07;4.68;;;5.30;99.90;;;;;;4992031;28;20254;-27
2020/12/12 00:54:18;;;;;;;5.40;4.85;;;5.30;99.90;;;;;;4993144;28;20211;-27
2020/12/12 00:56:48;;;;;;;6.28;4.97;;;5.20;99.90;;;;;;4992603;28;20216;-27
2020/12/12 00:59:19;;;;;;;4.93;4.53;;;5.20;99.90;;;;;;4993331;28;20264;-27
2020/12/12 01:01:49;;;;;;;4.35;4.05;;;5.20;99.90;;;;;;4993126;28;20223;-27
2020/12/12 01:04:20;;;;;;;12.15;6.88;;;5.20;99.90;;;;;;4993036;28;20379;-27
2020/12/12 01:06:50;;;;;;;5.88;5.32;;;5.20;99.90;;;;;;4991885;28;20208;-27
2020/12/12 01:09:20;;;;;;;142.27;29.02;;;5.30;99.90;;;;;;4992717;28;20218;-28
2020/12/12 01:11:51;;;;;;;150.13;26.23;;;5.20;99.90;;;;;;4992599;28;20219;-28
2020/12/12 01:14:22;;;;;;;5.18;4.78;;;5.20;99.90;;;;;;4992585;28;20196;-28
2020/12/12 01:16:52;;;;;;;5.18;4.68;;;5.20;99.90;;;;;;4991843;28;20196;-28
2020/12/12 01:19:23;;;;;;;4.80;4.40;;;5.20;99.90;;;;;;4992952;28;20196;-27
2020/12/12 01:21:55;;;;;;;5.18;4.70;;;5.20;99.90;;;;;;4991077;28;20235;-26
2020/12/12 01:24:25;;;;;;;5.00;4.60;;;5.10;99.90;;;;;;4992376;28;20192;-27
2020/12/12 01:26:55;;;;;;;5.30;4.80;;;5.10;99.90;;;;;;4994826;28;20572;-27
2020/12/12 01:29:27;;;;;;;5.55;5.05;;;5.10;99.90;;;;;;5012107;28;20626;-27
2020/12/12 01:31:57;;;;;;;5.10;4.70;;;5.20;99.90;;;;;;5011539;28;20195;-28
2020/12/12 01:34:27;;;;;;;4.85;4.43;;;5.20;99.90;;;;;;5011797;28;20195;-27
2020/12/12 01:36:57;;;;;;;5.00;4.60;;;5.10;99.90;;;;;;5010864;28;20623;-27
2020/12/12 01:39:27;;;;;;;5.07;4.38;;;4.90;99.90;;;;;;4997798;28;20204;-27
2020/12/12 01:41:57;;;;;;;6.43;4.68;;;4.80;99.90;;;;;;4992963;28;20539;-26
2020/12/12 01:44:28;;;;;;;4.50;4.10;;;5.00;99.90;;;;;;5011140;28;20257;-27
2020/12/12 01:47:01;;;;;;;4.03;3.63;;;4.90;99.90;;;;;;5002422;28;20559;-27
2020/12/12 01:49:31;;;;;;;3.85;3.53;;;5.00;99.90;;;;;;4991745;28;20230;-27
2020/12/12 01:52:01;;;;;;;4.00;3.70;;;5.00;99.90;;;;;;5007192;28;20203;-28
2020/12/12 01:54:32;;;;;;;3.17;2.97;;;4.90;99.90;;;;;;4997018;28;20187;-28
2020/12/12 01:57:05;;;;;;;4.65;3.80;;;4.80;99.90;;;;;;5006999;28;20188;-27
2020/12/12 01:59:36;;;;;;;3.40;3.17;;;4.70;99.90;;;;;;5008863;28;20191;-28
2020/12/12 02:02:08;;;;;;;4.00;3.40;;;4.80;99.90;;;;;;5010229;28;20223;-28
2020/12/12 02:04:41;;;;;;;3.67;3.38;;;4.80;99.90;;;;;;5004001;28;20195;-27
2020/12/12 02:07:11;;;;;;;4.40;4.00;;;4.90;99.90;;;;;;4990979;28;20667;-28
2020/12/12 02:09:41;;;;;;;3.50;3.20;;;4.80;99.90;;;;;;4983276;28;20254;-27
2020/12/12 02:12:12;;;;;;;41.13;9.98;;;4.80;99.90;;;;;;5000306;28;20204;-27
2020/12/12 02:14:43;;;;;;;4.15;2.72;;;4.70;99.90;;;;;;5010984;28;20218;-28
2020/12/12 02:17:14;;;;;;;4.65;4.18;;;4.80;99.90;;;;;;5010456;28;20246;-27
2020/12/12 02:19:44;;;;;;;3.80;2.88;;;4.80;99.90;;;;;;5010034;28;20199;-27
2020/12/12 02:22:16;;;;;;;3.08;2.83;;;4.70;99.90;;;;;;4990608;28;20216;-27
2020/12/12 02:24:46;;;;;;;4.28;3.50;;;4.70;99.90;;;;;;4997477;28;20192;-27
2020/12/12 02:27:16;;;;;;;3.30;2.92;;;4.80;99.90;;;;;;4999648;28;20657;-27
2020/12/12 02:29:48;;;;;;;3.75;3.15;;;4.80;99.90;;;;;;5004975;28;20273;-28
2020/12/12 02:32:18;;;;;;;4.38;3.60;;;4.80;99.90;;;;;;5009984;28;20318;-27
2020/12/12 02:34:48;;;;;;;4.13;3.70;;;4.80;99.90;;;;;;4993364;28;20193;-28
2020/12/12 02:37:20;;;;;;;4.80;4.13;;;4.80;99.90;;;;;;4991771;28;20199;-27
2020/12/12 02:39:50;;;;;;;5.43;4.97;;;4.80;99.90;;;;;;4992833;28;20231;-27
2020/12/12 02:42:20;;;;;;;5.35;4.85;;;4.90;99.90;;;;;;4992756;28;20300;-28
2020/12/12 02:44:53;;;;;;;80.15;16.50;;;5.00;99.90;;;;;;4998877;28;20200;-29
2020/12/12 02:47:23;;;;;;;151.95;31.52;;;5.00;99.90;;;;;;4990422;28;20270;-28
2020/12/12 02:50:09;;;;;;;6.70;5.90;;;5.10;99.90;;;;;;5004570;28;20202;-27
2020/12/12 02:52:42;;;;;;;6.82;6.20;;;5.20;99.90;;;;;;4974849;28;20195;-28
2020/12/12 02:55:12;;;;;;;6.53;6.03;;;5.20;99.90;;;;;;4990990;28;20532;-28
2020/12/12 02:57:42;;;;;;;7.30;6.57;;;5.20;99.90;;;;;;4991222;28;20275;-27
2020/12/12 03:00:15;;;;;;;7.30;6.50;;;5.20;99.90;;;;;;4990807;28;20204;-28
2020/12/12 03:02:45;;;;;;;7.93;7.20;;;5.20;99.90;;;;;;4990200;28;20224;-27
2020/12/12 03:05:16;;;;;;;8.38;7.68;;;5.10;99.90;;;;;;4997152;28;20556;-28
2020/12/12 03:07:47;;;;;;;8.57;7.78;;;5.20;99.90;;;;;;4997856;28;20632;-27
2020/12/12 03:10:17;;;;;;;8.80;8.00;;;5.20;99.90;;;;;;4994901;28;20192;-27
2020/12/12 03:12:47;;;;;;;8.05;7.35;;;5.20;99.90;;;;;;5002646;28;20200;-27
2020/12/12 03:15:17;;;;;;;9.27;8.23;;;5.20;99.90;;;;;;4991003;28;20323;-27
2020/12/12 03:17:47;;;;;;;13.57;10.60;;;5.20;99.90;;;;;;4999975;28;20568;-28
2020/12/12 03:20:17;;;;;;;15.90;12.93;;;5.20;99.90;;;;;;5009375;28;20265;-27
2020/12/12 03:22:48;;;;;;;113.72;30.38;;;5.20;99.90;;;;;;4994186;28;20227;-27
2020/12/12 03:25:18;;;;;;;28.42;25.40;;;5.30;99.90;;;;;;4999509;28;20616;-28
2020/12/12 03:27:48;;;;;;;1999.90;519.30;;;5.30;99.90;;;;;;5002745;28;20720;-28
2020/12/12 03:30:18;;;;;;;1999.90;687.85;;;5.40;99.90;;;;;;4990418;28;20667;-27
2020/12/12 03:32:48;;;;;;;15.27;13.70;;;5.60;99.90;;;;;;4989845;28;20196;-27
2020/12/12 03:35:18;;;;;;;13.43;12.07;;;5.50;99.90;;;;;;4985813;28;20196;-26
2020/12/12 03:37:50;;;;;;;12.88;11.68;;;5.30;99.90;;;;;;4992031;28;20520;-26
2020/12/12 03:40:34;;;;;;;32.35;26.35;;;5.20;99.90;;;;;;4994769;28;20227;-26
2020/12/12 03:43:04;;;;;;;32.33;28.98;;;5.30;99.90;;;;;;5009652;28;20613;-26
2020/12/12 03:45:35;;;;;;;29.38;25.85;;;5.40;99.90;;;;;;5010086;28;20230;-27
2020/12/12 03:48:05;;;;;;;27.60;25.02;;;5.40;99.90;;;;;;4995088;28;20248;-26
2020/12/12 03:50:35;;;;;;;31.63;28.23;;;5.30;99.90;;;;;;5009220;28;20206;-26
2020/12/12 03:53:06;;;;;;;31.60;28.20;;;5.30;99.90;;;;;;5000990;28;20284;-26
2020/12/12 03:55:36;;;;;;;29.77;26.88;;;5.30;99.90;;;;;;5009846;28;20196;-26
2020/12/12 03:58:06;;;;;;;57.97;29.52;;;5.30;99.90;;;;;;4990593;28;20196;-27
2020/12/12 04:00:36;;;;;;;1999.90;699.92;;;5.40;99.90;;;;;;4996989;28;20211;-28
2020/12/12 04:03:06;;;;;;;21.45;18.42;;;5.60;99.90;;;;;;4998924;28;20252;-27
2020/12/12 04:05:36;;;;;;;16.80;15.20;;;5.50;99.90;;;;;;5001361;28;20265;-27
2020/12/12 04:08:07;;;;;;;21.83;19.70;;;5.50;99.90;;;;;;4990985;28;20219;-28
2020/12/12 04:10:51;;;;;;;21.17;19.17;;;5.40;99.90;;;;;;4993697;28;20535;-27
2020/12/12 04:13:21;;;;;;;22.50;20.10;;;5.30;99.90;;;;;;5001404;28;20206;-27
2020/12/12 04:15:52;;;;;;;19.15;17.33;;;5.20;99.90;;;;;;5008811;28;20187;-27
2020/12/12 04:18:22;;;;;;;39.55;22.17;;;5.30;99.90;;;;;;4989319;28;20292;-27
2020/12/12 04:20:52;;;;;;;14.52;13.23;;;5.20;99.90;;;;;;4989614;28;20197;-27
2020/12/12 04:23:24;;;;;;;7.40;6.70;;;5.20;99.90;;;;;;4986697;28;20307;-27
2020/12/12 04:25:54;;;;;;;7.45;6.80;;;5.00;99.90;;;;;;4986933;28;20216;-26
2020/12/12 04:28:24;;;;;;;6.88;5.97;;;4.90;99.90;;;;;;5007045;28;20230;-27
2020/12/12 04:30:54;;;;;;;10.50;8.20;;;4.90;99.90;;;;;;5012690;28;20195;-27
2020/12/12 04:33:24;;;;;;;40.63;13.98;;;4.80;99.90;;;;;;4999768;28;20623;-27
2020/12/12 04:35:55;;;;;;;1999.90;515.67;;;4.90;99.90;;;;;;4995932;28;20195;-26
2020/12/12 04:38:26;;;;;;;12.43;11.25;;;5.00;99.90;;;;;;4992664;28;20204;-27
2020/12/12 04:41:09;;;;;;;15.95;14.35;;;5.00;99.90;;;;;;4993084;28;20304;-27
2020/12/12 04:43:40;;;;;;;16.27;14.77;;;4.90;99.90;;;;;;5007647;28;20230;-26
2020/12/12 04:46:13;;;;;;;15.25;13.65;;;4.90;99.90;;;;;;5008172;28;20616;-26
2020/12/12 04:48:44;;;;;;;15.93;14.38;;;4.80;99.90;;;;;;5001050;28;20258;-27
2020/12/12 04:51:15;;;;;;;17.30;15.68;;;4.80;99.90;;;;;;5004894;28;20204;-26
2020/12/12 04:53:48;;;;;;;21.10;18.95;;;4.80;99.90;;;;;;4992223;28;20250;-27
2020/12/12 04:56:24;;;;;;;26.33;23.73;;;4.90;99.90;;;;;;4997886;28;20195;-27
2020/12/12 04:58:54;;;;;;;22.88;20.80;;;4.80;99.90;;;;;;5003932;28;20623;-27
2020/12/12 05:01:24;;;;;;;24.30;21.83;;;4.90;99.90;;;;;;4999147;28;20231;-27
2020/12/12 05:03:58;;;;;;;25.05;22.65;;;4.90;99.90;;;;;;4996346;28;20231;-27
2020/12/12 05:06:30;;;;;;;832.78;158.63;;;4.80;99.90;;;;;;5011962;28;20243;-26
2020/12/12 05:09:01;;;;;;;1999.90;439.20;;;5.00;99.90;;;;;;5011468;28;20203;-26
2020/12/12 05:11:33;;;;;;;1999.90;555.08;;;5.10;99.90;;;;;;4997099;28;20200;-26
2020/12/12 05:14:10;;;;;;;30.63;27.52;;;5.10;99.90;;;;;;4993142;28;20228;-26
2020/12/12 05:16:40;;;;;;;28.70;25.80;;;5.00;99.90;;;;;;4999263;28;20195;-26
2020/12/12 05:19:10;;;;;;;28.40;25.42;;;4.90;99.90;;;;;;5012409;28;20207;-27
2020/12/12 05:21:47;;;;;;;39.72;35.42;;;4.80;99.90;;;;;;5010419;28;20203;-26
2020/12/12 05:24:19;;;;;;;38.85;34.92;;;4.70;99.90;;;;;;4992602;28;20224;-27
2020/12/12 05:26:49;;;;;;;39.63;35.42;;;4.70;99.90;;;;;;5003145;28;20838;-26
2020/12/12 05:29:19;;;;;;;34.53;31.10;;;4.60;99.90;;;;;;4997136;28;20204;-26
2020/12/12 05:31:50;;;;;;;35.80;32.00;;;4.60;99.90;;;;;;5008358;28;20774;-26
2020/12/12 05:34:20;;;;;;;34.90;31.30;;;4.40;99.90;;;;;;4992769;28;20222;-27
2020/12/12 05:36:51;;;;;;;34.55;30.98;;;4.40;99.90;;;;;;5002219;28;20834;-27
2020/12/12 05:39:22;;;;;;;37.85;33.85;;;4.40;99.90;;;;;;4995522;28;20578;-27
2020/12/12 05:41:52;;;;;;;38.63;34.65;;;4.40;99.90;;;;;;4992843;28;20221;-27
2020/12/12 05:44:22;;;;;;;38.83;34.67;;;4.30;99.90;;;;;;5000370;28;20275;-27
2020/12/12 05:46:53;;;;;;;38.28;34.13;;;4.30;99.90;;;;;;4992270;28;20196;-26
2020/12/12 05:49:23;;;;;;;37.83;34.03;;;4.20;99.90;;;;;;5009126;28;20302;-26
2020/12/12 05:51:54;;;;;;;39.08;34.75;;;4.30;99.90;;;;;;5003571;28;20199;-27
2020/12/12 05:54:26;;;;;;;38.10;34.10;;;4.30;99.90;;;;;;4983879;28;20204;-26
2020/12/12 05:56:59;;;;;;;41.53;35.50;;;4.20;99.90;;;;;;4994052;28;20195;-27
2020/12/12 05:59:29;;;;;;;36.67;32.97;;;4.10;99.90;;;;;;4993610;28;20599;-25
2020/12/12 06:02:06;;;;;;;42.20;37.67;;;4.10;99.90;;;;;;4994244;28;20329;-26
2020/12/12 06:04:42;;;;;;;34.55;31.02;;;4.10;99.90;;;;;;5011172;28;20240;-26
2020/12/12 06:07:28;;;;;;;36.20;32.20;;;4.00;99.90;;;;;;4998843;28;20261;-26
2020/12/12 06:10:01;;;;;;;36.47;32.60;;;3.90;99.90;;;;;;5008329;28;20199;-26
2020/12/12 06:12:32;;;;;;;32.75;29.38;;;3.90;99.90;;;;;;4997230;28;20192;-27
2020/12/12 06:15:03;;;;;;;33.92;30.52;;;4.00;99.90;;;;;;4991772;28;20485;-27
2020/12/12 06:18:02;;;;;;;37.60;33.05;;;3.90;99.90;;;;;;5003784;28;20192;-26
2020/12/12 06:20:35;;;;;;;35.03;31.23;;;3.90;99.90;;;;;;4977495;28;20545;-26
2020/12/12 06:23:07;;;;;;;35.65;31.75;;;3.90;99.90;;;;;;4992102;28;20224;-27
2020/12/12 06:25:38;;;;;;;37.38;33.38;;;3.80;99.90;;;;;;4992764;28;20219;-26
2020/12/12 06:28:11;;;;;;;39.33;35.10;;;3.80;99.90;;;;;;5010382;28;20201;-26
2020/12/12 06:30:42;;;;;;;39.88;35.40;;;3.80;99.90;;;;;;5011097;28;20257;-26
2020/12/12 06:33:13;;;;;;;40.15;33.83;;;3.80;99.90;;;;;;4994372;28;20196;-27
2020/12/12 06:35:43;;;;;;;36.88;32.95;;;3.80;99.90;;;;;;5001458;28;20613;-27
2020/12/12 06:38:27;;;;;;;34.22;30.60;;;3.80;99.90;;;;;;5000010;28;20190;-26
2020/12/12 06:41:00;;;;;;;31.88;28.50;;;3.80;99.90;;;;;;4997727;28;20366;-27
2020/12/12 06:43:34;;;;;;;33.35;29.63;;;3.80;99.90;;;;;;5010093;28;20214;-27
2020/12/12 06:46:05;;;;;;;37.08;33.08;;;3.80;99.90;;;;;;5002266;28;20187;-27
2020/12/12 06:48:36;;;;;;;40.03;35.85;;;3.80;99.90;;;;;;4999200;28;20275;-27
2020/12/12 06:51:06;;;;;;;37.50;32.78;;;3.90;99.90;;;;;;4994015;28;20219;-27
2020/12/12 06:53:36;;;;;;;39.97;35.78;;;3.90;99.90;;;;;;4990454;28;20204;-27
2020/12/12 06:56:15;;;;;;;41.22;35.75;;;4.00;99.90;;;;;;4991739;28;20200;-27
2020/12/12 06:58:46;;;;;;;42.95;38.30;;;4.10;99.90;;;;;;4992919;28;20219;-27
2020/12/12 07:01:32;;;;;;;40.78;36.47;;;4.20;99.90;;;;;;4991011;28;20652;-27
2020/12/12 07:04:03;;;;;;;37.90;33.92;;;4.10;99.90;;;;;;4990579;28;20228;-27
2020/12/12 07:06:34;;;;;;;38.90;34.75;;;4.20;99.90;;;;;;4975354;28;20192;-27
2020/12/12 07:09:07;;;;;;;38.47;34.55;;;4.10;99.90;;;;;;4993235;28;20189;-27
2020/12/12 07:11:38;;;;;;;35.83;32.05;;;4.10;99.90;;;;;;4979971;28;20623;-27
2020/12/12 07:14:08;;;;;;;36.80;32.90;;;4.10;99.90;;;;;;5006635;28;20403;-27
2020/12/12 07:16:39;;;;;;;38.83;34.75;;;4.10;99.90;;;;;;4995860;28;20722;-26
2020/12/12 07:19:10;;;;;;;38.63;34.58;;;4.10;99.90;;;;;;5009760;28;20286;-26
2020/12/12 07:21:41;;;;;;;36.60;32.70;;;4.20;99.90;;;;;;5009965;28;20227;-27
2020/12/12 07:24:11;;;;;;;37.35;33.63;;;4.20;99.90;;;;;;5001981;28;20208;-27
2020/12/12 07:26:43;;;;;;;31.63;28.33;;;4.20;99.90;;;;;;4995676;28;20266;-27
2020/12/12 07:29:13;;;;;;;33.40;29.80;;;4.30;99.90;;;;;;5006915;28;20657;-26
2020/12/12 07:31:44;;;;;;;31.73;28.42;;;4.40;99.90;;;;;;4985764;28;20273;-27
2020/12/12 07:34:19;;;;;;;28.63;25.63;;;4.50;99.90;;;;;;4990595;28;20196;-27
2020/12/12 07:36:58;;;;;;;28.75;25.65;;;4.60;99.90;;;;;;4995778;28;20604;-27
2020/12/12 07:39:30;;;;;;;29.63;24.65;;;4.60;99.90;;;;;;4993091;28;20567;-26
2020/12/12 07:42:02;;;;;;;26.15;23.23;;;4.60;99.90;;;;;;4990661;28;20567;-26
2020/12/12 07:44:33;;;;;;;26.67;23.90;;;4.60;99.90;;;;;;4996454;28;20242;-26
2020/12/12 07:47:05;;;;;;;26.92;24.02;;;4.60;99.90;;;;;;5002037;28;20199;-26
2020/12/12 07:49:37;;;;;;;26.17;23.50;;;4.60;99.90;;;;;;4990435;28;20196;-26
2020/12/12 07:52:09;;;;;;;24.13;21.50;;;4.70;99.90;;;;;;4989830;28;20200;-26
2020/12/12 07:54:43;;;;;;;25.02;20.95;;;4.70;99.90;;;;;;4987532;28;20254;-27
2020/12/12 07:57:15;;;;;;;23.38;19.48;;;4.70;99.90;;;;;;4995786;28;20686;-26
2020/12/12 07:59:46;;;;;;;23.70;19.40;;;4.70;99.90;;;;;;4990288;28;20538;-27
2020/12/12 08:02:16;;;;;;;22.55;18.08;;;4.70;99.90;;;;;;4995886;28;20333;-26
2020/12/12 08:04:46;;;;;;;21.13;17.55;;;4.70;99.90;;;;;;5012951;28;20219;-26
2020/12/12 08:07:19;;;;;;;19.80;16.83;;;4.70;99.90;;;;;;5011180;28;20256;-26
2020/12/12 08:09:50;;;;;;;21.35;18.15;;;4.80;99.90;;;;;;4998131;28;20207;-26
2020/12/12 08:12:32;;;;;;;19.75;16.10;;;4.80;99.90;;;;;;4995022;28;20339;-26
2020/12/12 08:15:13;;;;;;;18.77;15.73;;;4.70;99.90;;;;;;4994651;28;20258;-26
2020/12/12 08:17:44;;;;;;;19.70;15.32;;;4.70;99.90;;;;;;5007258;28;20191;-26
2020/12/12 08:20:15;;;;;;;21.27;17.35;;;4.70;99.90;;;;;;5011681;28;20192;-27
2020/12/12 08:22:46;;;;;;;18.27;14.52;;;4.70;99.90;;;;;;4994516;28;20192;-27
2020/12/12 08:25:18;;;;;;;19.80;16.40;;;4.60;99.90;;;;;;5003217;28;20717;-26
2020/12/12 08:27:51;;;;;;;18.83;15.50;;;4.60;99.90;;;;;;5004986;28;20188;-26
2020/12/12 08:30:21;;;;;;;19.02;15.63;;;4.60;99.90;;;;;;4995211;28;20710;-26
2020/12/12 08:32:51;;;;;;;19.98;15.73;;;4.60;99.90;;;;;;4993260;28;20251;-26
2020/12/12 08:35:41;;;;;;;19.80;15.90;;;4.60;99.90;;;;;;5005474;28;20366;-27
2020/12/12 08:38:14;;;;;;;18.85;16.05;;;4.70;99.90;;;;;;5012171;28;20725;-27
2020/12/12 08:40:47;;;;;;;19.15;16.13;;;4.70;99.90;;;;;;4992404;28;20601;-27
2020/12/12 08:43:18;;;;;;;16.23;14.52;;;4.70;99.90;;;;;;4999204;28;20219;-26
2020/12/12 08:45:59;;;;;;;18.42;15.48;;;4.80;99.90;;;;;;5006243;28;20203;-27
2020/12/12 08:48:33;;;;;;;20.60;15.93;;;4.80;99.90;;;;;;5000710;28;20196;-26
2020/12/12 08:51:05;;;;;;;17.85;15.68;;;4.90;99.90;;;;;;4999473;28;20274;-26
2020/12/12 08:53:37;;;;;;;18.50;15.40;;;4.80;99.90;;;;;;5012214;28;20594;-26
2020/12/12 08:56:10;;;;;;;19.30;15.85;;;4.80;99.90;;;;;;4996232;28;20271;-27
2020/12/12 08:58:51;;;;;;;16.70;14.40;;;4.90;99.90;;;;;;4997416;28;20694;-26
2020/12/12 09:01:35;;;;;;;17.85;15.75;;;4.80;99.90;;;;;;4994258;28;20294;-27
2020/12/12 09:04:15;;;;;;;20.48;15.70;;;4.80;99.90;;;;;;5008442;28;20256;-26
2020/12/12 09:06:57;;;;;;;19.15;15.15;;;4.60;99.90;;;;;;4980565;28;20188;-27
2020/12/12 09:09:27;;;;;;;19.83;16.67;;;4.60;99.90;;;;;;4992848;28;20282;-27
2020/12/12 09:12:04;;;;;;;18.60;15.65;;;4.60;99.90;;;;;;5002013;28;20188;-27
2020/12/12 09:14:36;;;;;;;19.30;16.00;;;4.60;99.90;;;;;;4996812;28;20254;-28
2020/12/12 09:17:09;;;;;;;21.38;15.73;;;4.70;99.90;;;;;;5005403;28;20192;-27
2020/12/12 09:19:40;;;;;;;20.02;17.35;;;4.70;99.90;;;;;;5005796;28;20187;-27
2020/12/12 09:22:12;;;;;;;25.38;16.77;;;4.80;99.90;;;;;;5009719;28;20273;-27
2020/12/12 09:24:42;;;;;;;20.05;16.67;;;4.70;99.90;;;;;;4997851;28;20231;-27
2020/12/12 09:27:12;;;;;;;22.13;16.55;;;4.80;99.90;;;;;;4995147;28;20218;-27
2020/12/12 09:29:43;;;;;;;19.90;15.55;;;4.70;99.90;;;;;;4997989;28;20188;-29
2020/12/12 09:32:13;;;;;;;18.23;15.50;;;4.70;99.90;;;;;;5011618;28;20203;-26
2020/12/12 09:34:44;;;;;;;20.58;15.63;;;4.60;99.90;;;;;;4997901;28;20225;-27
2020/12/12 09:37:14;;;;;;;18.48;14.63;;;4.60;99.90;;;;;;5008909;28;20337;-27
2020/12/12 09:39:44;;;;;;;20.73;14.38;;;4.60;99.90;;;;;;4997083;28;20232;-27
2020/12/12 09:42:14;;;;;;;23.38;15.07;;;4.70;99.90;;;;;;5001120;28;20200;-27
2020/12/12 09:44:45;;;;;;;21.98;16.40;;;4.70;99.90;;;;;;4997961;28;20216;-27
2020/12/12 09:47:15;;;;;;;21.05;14.63;;;4.70;99.90;;;;;;5007837;28;20203;-27
2020/12/12 09:49:45;;;;;;;20.60;14.63;;;4.70;99.90;;;;;;5001615;28;20632;-27
2020/12/12 09:52:15;;;;;;;22.90;16.48;;;4.70;99.90;;;;;;5004946;28;20233;-27
2020/12/12 09:54:45;;;;;;;27.40;16.70;;;4.70;99.90;;;;;;5003860;28;20196;-27
2020/12/12 09:57:15;;;;;;;28.45;17.10;;;4.70;99.90;;;;;;5004697;28;20709;-27
2020/12/12 09:59:46;;;;;;;29.05;19.65;;;4.60;99.90;;;;;;5011304;28;20689;-27
2020/12/12 10:02:16;;;;;;;35.22;20.25;;;4.70;99.90;;;;;;5009486;28;20294;-27
2020/12/12 10:04:47;;;;;;;30.30;20.48;;;4.70;99.90;;;;;;5009047;28;20315;-27
2020/12/12 10:07:18;;;;;;;28.55;20.95;;;4.70;99.90;;;;;;4998458;28;20196;-26
2020/12/12 10:09:49;;;;;;;25.42;17.40;;;4.70;99.90;;;;;;5002990;28;20291;-27
2020/12/12 10:12:19;;;;;;;33.90;20.67;;;4.70;99.90;;;;;;5000798;28;20200;-27
2020/12/12 10:14:50;;;;;;;29.48;19.95;;;4.80;99.90;;;;;;4998704;28;20226;-27
2020/12/12 10:17:20;;;;;;;29.88;20.35;;;4.90;99.90;;;;;;4992546;28;20219;-26
2020/12/12 10:19:50;;;;;;;29.10;18.48;;;4.90;99.90;;;;;;4999163;28;20290;-27
2020/12/12 10:22:20;;;;;;;32.42;20.95;;;4.80;99.90;;;;;;4997967;28;20612;-26
2020/12/12 10:24:51;;;;;;;28.13;19.77;;;4.90;99.90;;;;;;4990961;28;20618;-27
2020/12/12 10:27:21;;;;;;;29.17;20.48;;;4.90;99.90;;;;;;5007895;28;20191;-26
2020/12/12 10:29:53;;;;;;;30.67;21.13;;;4.90;99.90;;;;;;4991119;28;20189;-27
2020/12/12 10:32:23;;;;;;;27.17;19.80;;;4.90;99.90;;;;;;4991152;28;20191;-27
2020/12/12 10:34:53;;;;;;;29.95;21.02;;;4.90;99.90;;;;;;4999720;28;20529;-27
2020/12/12 10:37:23;;;;;;;31.50;21.85;;;4.90;99.90;;;;;;5004103;28;20200;-27
2020/12/12 10:39:56;;;;;;;32.30;21.77;;;5.00;99.90;;;;;;5004572;28;20286;-28
2020/12/12 10:42:26;;;;;;;34.05;20.65;;;5.00;99.90;;;;;;5000297;28;20256;-27
2020/12/12 10:44:57;;;;;;;30.58;19.48;;;5.00;99.90;;;;;;5010019;28;20678;-27
2020/12/12 10:47:27;;;;;;;26.67;18.55;;;5.00;99.90;;;;;;5009544;28;20584;-28
2020/12/12 10:49:58;;;;;;;28.35;20.25;;;5.00;99.90;;;;;;5010035;28;20191;-27
2020/12/12 10:52:38;;;;;;;24.23;15.70;;;4.80;99.90;;;;;;4999116;28;20202;-28
2020/12/12 10:55:09;;;;;;;23.02;15.88;;;4.80;99.90;;;;;;4990763;28;20204;-28
2020/12/12 10:57:39;;;;;;;22.23;14.95;;;4.80;99.90;;;;;;4993589;28;20207;-27
2020/12/12 11:00:12;;;;;;;23.52;15.20;;;4.80;99.90;;;;;;5009929;28;20187;-27
2020/12/12 11:02:42;;;;;;;21.23;15.40;;;4.80;99.90;;;;;;4996892;28;20207;-27
2020/12/12 11:05:12;;;;;;;17.63;13.40;;;4.80;99.90;;;;;;5005067;28;20359;-28
2020/12/12 11:07:53;;;;;;;13.63;11.52;;;4.70;99.90;;;;;;4998694;28;20547;-27
2020/12/12 11:10:23;;;;;;;11.68;9.52;;;4.80;99.90;;;;;;4990735;28;20318;-27
2020/12/12 11:12:53;;;;;;;14.70;11.13;;;4.80;99.90;;;;;;4999339;28;20249;-27
2020/12/12 11:15:24;;;;;;;12.75;10.00;;;4.80;99.90;;;;;;4990812;28;20204;-26
2020/12/12 11:17:56;;;;;;;13.82;9.30;;;4.80;99.90;;;;;;4991884;28;20224;-27
2020/12/12 11:20:26;;;;;;;13.73;9.50;;;4.70;99.90;;;;;;4990739;28;20203;-27
2020/12/12 11:22:56;;;;;;;12.40;9.05;;;4.60;99.90;;;;;;5005288;28;20202;-27
2020/12/12 11:25:26;;;;;;;12.40;9.65;;;4.60;99.90;;;;;;4996819;28;20230;-26
2020/12/12 11:27:56;;;;;;;12.00;9.10;;;4.60;99.90;;;;;;5000077;28;20204;-26
2020/12/12 11:30:27;;;;;;;11.95;9.35;;;4.50;99.90;;;;;;4995637;28;20286;-27
2020/12/12 11:32:57;;;;;;;12.52;9.65;;;4.50;99.90;;;;;;4990214;28;20267;-27
2020/12/12 11:35:32;;;;;;;11.35;9.32;;;4.50;99.90;;;;;;4991870;28;20200;-31
2020/12/12 11:40:58;;;;;;;13.23;10.10;;;4.30;99.90;;;;;;5006979;28;20242;-27
2020/12/12 11:43:50;;;;;;;14.57;11.20;;;4.30;99.90;;;;;;4994399;28;20246;-26
2020/12/12 11:46:32;;;;;;;15.07;9.98;;;4.30;99.90;;;;;;5000519;28;20208;-26
2020/12/12 11:49:02;;;;;;;13.88;8.65;;;4.30;99.90;;;;;;5004245;28;20639;-26
2020/12/12 11:51:36;;;;;;;16.00;9.95;;;4.20;99.90;;;;;;5009377;28;20196;-27
2020/12/12 11:54:07;;;;;;;15.30;10.98;;;4.20;99.90;;;;;;5012107;28;20194;-26
2020/12/12 11:56:37;;;;;;;13.10;9.77;;;4.20;99.90;;;;;;5013424;28;20194;-27
2020/12/12 11:59:07;;;;;;;12.23;9.27;;;4.20;99.90;;;;;;5000411;28;20226;-28
2020/12/12 12:01:38;;;;;;;11.70;8.85;;;4.20;99.90;;;;;;5010586;28;20213;-27
2020/12/12 12:04:09;;;;;;;12.38;8.65;;;4.20;99.90;;;;;;4998412;28;20212;-27
2020/12/12 12:06:39;;;;;;;9.10;7.70;;;4.10;99.90;;;;;;5009993;28;20639;-27
2020/12/12 12:09:19;;;;;;;13.05;8.80;;;4.10;99.90;;;;;;4998233;28;20239;-26
2020/12/12 12:11:50;;;;;;;10.63;7.80;;;4.00;99.90;;;;;;5003630;28;20596;-26
2020/12/12 12:14:20;;;;;;;9.65;7.90;;;4.10;99.90;;;;;;4991604;28;20211;-26
2020/12/12 12:16:52;;;;;;;14.40;7.95;;;4.00;99.90;;;;;;4999306;28;20198;-26
2020/12/12 12:19:22;;;;;;;10.55;8.45;;;4.10;99.90;;;;;;5001978;28;20659;-27
2020/12/12 12:21:52;;;;;;;12.07;8.10;;;4.00;99.90;;;;;;5003882;28;20225;-26
2020/12/12 12:24:23;;;;;;;13.68;8.90;;;4.10;99.90;;;;;;4993679;28;20227;-27
2020/12/12 12:26:53;;;;;;;11.10;8.00;;;4.10;99.90;;;;;;5005349;28;20433;-27
2020/12/12 12:29:23;;;;;;;9.30;7.00;;;4.00;99.90;;;;;;5006120;28;20214;-27
2020/12/12 12:31:55;;;;;;;8.65;7.03;;;3.90;99.90;;;;;;5002228;28;20192;-27
2020/12/12 12:34:32;;;;;;;9.55;8.05;;;4.00;99.90;;;;;;5009660;28;20198;-28
2020/12/12 12:37:02;;;;;;;7.47;6.63;;;4.00;99.90;;;;;;4978985;28;20477;-27
2020/12/12 12:39:32;;;;;;;9.68;7.47;;;4.00;99.90;;;;;;5000234;28;20258;-28
2020/12/12 12:42:04;;;;;;;8.65;7.45;;;4.00;99.90;;;;;;5012800;28;20639;-27
2020/12/12 12:44:34;;;;;;;11.50;8.63;;;4.00;99.90;;;;;;5011074;28;20246;-27
2020/12/12 12:47:06;;;;;;;9.40;8.05;;;4.00;99.90;;;;;;4996345;28;20202;-28
2020/12/12 12:49:36;;;;;;;9.43;7.65;;;4.00;99.90;;;;;;4993703;28;20192;-28
2020/12/12 12:52:06;;;;;;;10.02;8.40;;;3.80;99.90;;;;;;5004020;28;20223;-27
2020/12/12 12:54:36;;;;;;;11.93;8.95;;;3.90;99.90;;;;;;5012656;28;20548;-28
2020/12/12 12:57:06;;;;;;;9.38;7.63;;;3.80;99.90;;;;;;5007714;28;20200;-27
2020/12/12 12:59:36;;;;;;;10.00;7.85;;;3.70;99.90;;;;;;4997313;28;20629;-27
2020/12/12 13:02:07;;;;;;;9.35;7.47;;;3.60;99.90;;;;;;5002694;28;20196;-27
2020/12/12 13:04:37;;;;;;;11.52;8.00;;;3.50;99.90;;;;;;4998148;28;20644;-27
2020/12/12 13:07:07;;;;;;;10.73;7.40;;;3.40;99.90;;;;;;5004777;28;20298;-27
2020/12/12 13:09:37;;;;;;;9.77;7.28;;;3.30;99.90;;;;;;5006499;28;20243;-27